createdAt,value
2017-09-24T00:02:13.654Z,14.85
2017-09-24T00:04:48.297Z,15.73
2017-09-24T00:07:23.638Z,15.82
2017-09-24T00:09:58.340Z,14.45
2017-09-24T00:12:33.200Z,14.30
2017-09-24T00:15:07.823Z,13.38
2017-09-24T00:17:42.582Z,13.35
2017-09-24T00:20:18.006Z,14.45
2017-09-24T00:22:52.475Z,14.15
2017-09-24T00:25:27.164Z,14.13
2017-09-24T00:28:01.699Z,12.80
2017-09-24T00:30:36.347Z,13.13
2017-09-24T00:33:10.851Z,14.25
2017-09-24T00:35:45.269Z,13.95
2017-09-24T00:38:19.757Z,13.73
2017-09-24T00:40:54.113Z,14.95
2017-09-24T00:43:28.660Z,14.38
2017-09-24T00:46:03.112Z,14.68
2017-09-24T00:48:37.424Z,13.20
2017-09-24T00:51:11.891Z,13.90
2017-09-24T00:53:47.124Z,13.60
2017-09-24T00:56:21.597Z,15.18
2017-09-24T00:58:56.214Z,13.88
2017-09-24T01:01:30.656Z,12.57
2017-09-24T01:04:05.159Z,12.55
2017-09-24T01:06:39.676Z,13.05
2017-09-24T01:09:14.165Z,12.68
2017-09-24T01:11:48.688Z,13.00
2017-09-24T01:14:23.129Z,12.60
2017-09-24T01:16:57.520Z,11.50
2017-09-24T01:19:31.940Z,12.15
2017-09-24T01:22:06.254Z,10.35
2017-09-24T01:24:40.787Z,9.65
2017-09-24T01:27:15.275Z,9.77
2017-09-24T01:29:49.750Z,8.77
2017-09-24T01:32:24.072Z,8.55
2017-09-24T01:34:58.632Z,8.50
2017-09-24T01:37:33.822Z,8.10
2017-09-24T01:40:08.333Z,9.00
2017-09-24T01:42:42.808Z,9.40
2017-09-24T01:45:17.210Z,8.15
2017-09-24T01:47:51.680Z,7.85
2017-09-24T01:50:26.164Z,9.00
2017-09-24T01:53:00.517Z,6.78
2017-09-24T01:55:35.044Z,6.72
2017-09-24T01:58:09.514Z,7.12
2017-09-24T02:00:44.132Z,8.07
2017-09-24T02:03:18.573Z,7.62
2017-09-24T02:05:52.874Z,8.85
2017-09-24T02:08:28.076Z,6.90
2017-09-24T02:11:02.587Z,7.35
2017-09-24T02:13:37.090Z,6.05
2017-09-24T02:16:12.221Z,7.30
2017-09-24T02:18:46.559Z,7.28
2017-09-24T02:21:21.002Z,7.10
2017-09-24T02:23:55.427Z,7.10
2017-09-24T02:26:29.947Z,7.53
2017-09-24T02:29:04.420Z,7.62
2017-09-24T02:31:38.788Z,6.10
2017-09-24T02:34:13.326Z,7.62
2017-09-24T02:36:47.692Z,7.65
2017-09-24T02:39:22.033Z,6.82
2017-09-24T02:41:56.480Z,7.75
2017-09-24T02:44:30.931Z,7.62
2017-09-24T02:47:05.393Z,6.25
2017-09-24T02:49:40.709Z,6.93
2017-09-24T02:52:15.159Z,6.80
2017-09-24T02:54:49.598Z,6.50
2017-09-24T02:57:24.004Z,6.40
2017-09-24T02:59:58.592Z,5.93
2017-09-24T03:02:33.270Z,6.10
2017-09-24T03:05:07.613Z,6.32
2017-09-24T03:07:42.051Z,6.10
2017-09-24T03:10:16.551Z,6.40
2017-09-24T03:12:51.015Z,5.55
2017-09-24T03:15:25.479Z,5.85
2017-09-24T03:17:59.965Z,5.95
2017-09-24T03:20:34.537Z,6.60
2017-09-24T03:23:08.995Z,6.37
2017-09-24T03:25:43.353Z,6.95
2017-09-24T03:28:17.637Z,5.70
2017-09-24T03:30:52.096Z,7.50
2017-09-24T03:33:27.187Z,6.25
2017-09-24T03:36:01.766Z,6.07
2017-09-24T03:38:36.183Z,6.37
2017-09-24T03:41:10.740Z,7.30
2017-09-24T03:43:45.220Z,7.00
2017-09-24T03:46:20.400Z,6.30
2017-09-24T03:48:56.232Z,7.97
2017-09-24T03:51:30.871Z,6.30
2017-09-24T03:54:05.364Z,6.95
2017-09-24T03:56:39.826Z,7.05
2017-09-24T03:59:14.375Z,6.35
2017-09-24T04:01:48.718Z,6.43
2017-09-24T04:04:23.224Z,6.07
2017-09-24T04:06:57.598Z,6.82
2017-09-24T04:09:32.039Z,7.20
2017-09-24T04:12:06.383Z,7.75
2017-09-24T04:14:40.674Z,7.37
2017-09-24T04:17:14.978Z,7.40
2017-09-24T04:19:49.340Z,7.35
2017-09-24T04:22:23.685Z,7.22
2017-09-24T04:24:58.190Z,8.20
2017-09-24T04:27:33.372Z,6.97
2017-09-24T04:30:07.753Z,8.35
2017-09-24T04:32:42.257Z,7.60
2017-09-24T04:35:16.740Z,6.97
2017-09-24T04:37:51.276Z,7.03
2017-09-24T04:40:26.408Z,8.48
2017-09-24T04:43:00.759Z,8.20
2017-09-24T04:45:35.116Z,8.07
2017-09-24T04:48:10.365Z,8.55
2017-09-24T04:50:44.707Z,7.50
2017-09-24T04:53:19.182Z,7.05
2017-09-24T04:55:53.664Z,8.60
2017-09-24T04:58:27.994Z,7.93
2017-09-24T05:01:02.587Z,8.13
2017-09-24T05:03:37.020Z,8.20
2017-09-24T05:06:12.247Z,8.73
2017-09-24T05:08:46.727Z,8.05
2017-09-24T05:11:21.063Z,8.30
2017-09-24T05:13:55.488Z,7.80
2017-09-24T05:16:29.964Z,8.60
2017-09-24T05:19:04.436Z,8.85
2017-09-24T05:21:39.285Z,8.32
2017-09-24T05:24:13.789Z,8.40
2017-09-24T05:26:48.243Z,8.40
2017-09-24T05:29:22.687Z,8.57
2017-09-24T05:31:57.042Z,8.32
2017-09-24T05:34:31.615Z,8.40
2017-09-24T05:37:06.355Z,8.50
2017-09-24T05:39:40.929Z,8.93
2017-09-24T05:42:15.335Z,8.88
2017-09-24T05:44:49.625Z,8.10
2017-09-24T05:47:23.980Z,8.75
2017-09-24T05:49:58.295Z,8.90
2017-09-24T05:52:33.477Z,9.52
2017-09-24T05:55:07.835Z,9.98
2017-09-24T05:57:42.267Z,9.60
2017-09-24T06:00:16.588Z,8.70
2017-09-24T06:02:50.951Z,10.38
2017-09-24T06:05:25.304Z,10.35
2017-09-24T06:07:59.756Z,9.15
2017-09-24T06:10:34.323Z,9.75
2017-09-24T06:13:09.639Z,10.23
2017-09-24T06:15:44.129Z,10.90
2017-09-24T06:18:18.611Z,10.07
2017-09-24T06:20:53.127Z,10.85
2017-09-24T06:23:27.626Z,10.88
2017-09-24T06:26:02.819Z,10.10
2017-09-24T06:28:38.192Z,8.95
2017-09-24T06:31:12.704Z,10.15
2017-09-24T06:33:47.110Z,10.70
2017-09-24T06:36:21.544Z,10.35
2017-09-24T06:38:55.889Z,10.00
2017-09-24T06:41:30.476Z,11.25
2017-09-24T06:44:05.640Z,10.15
2017-09-24T06:46:40.092Z,10.90
2017-09-24T06:49:15.376Z,11.05
2017-09-24T06:51:49.878Z,11.48
2017-09-24T06:54:24.350Z,11.90
2017-09-24T06:56:58.729Z,9.63
2017-09-24T06:59:33.064Z,11.55
2017-09-24T07:02:07.564Z,11.85
2017-09-24T07:04:42.056Z,13.43
2017-09-24T07:07:16.433Z,11.80
2017-09-24T07:09:50.796Z,12.05
2017-09-24T07:12:35.714Z,10.98
2017-09-24T07:15:12.173Z,11.00
2017-09-24T07:17:50.694Z,11.00
2017-09-24T07:20:26.754Z,11.70
2017-09-24T07:23:02.052Z,11.25
2017-09-24T07:25:38.354Z,10.48
2017-09-24T07:28:14.511Z,11.23
2017-09-24T07:30:49.078Z,11.02
2017-09-24T07:33:23.623Z,11.63
2017-09-24T07:35:58.086Z,10.60
2017-09-24T07:38:32.875Z,10.07
2017-09-24T07:41:08.399Z,10.95
2017-09-24T07:43:42.948Z,10.57
2017-09-24T07:46:17.488Z,10.48
2017-09-24T07:48:52.114Z,11.90
2017-09-24T07:51:27.411Z,11.30
2017-09-24T07:54:01.751Z,12.65
2017-09-24T07:56:36.348Z,12.37
2017-09-24T07:59:11.489Z,12.32
2017-09-24T08:01:46.286Z,14.35
2017-09-24T08:04:21.663Z,12.27
2017-09-24T08:07:01.295Z,12.60
2017-09-24T08:09:35.724Z,13.10
2017-09-24T08:12:11.779Z,12.55
2017-09-24T08:14:46.212Z,13.90
2017-09-24T08:17:24.001Z,13.50
2017-09-24T08:19:58.411Z,12.43
2017-09-24T08:22:32.854Z,15.23
2017-09-24T08:25:07.175Z,13.73
2017-09-24T08:27:41.812Z,14.32
2017-09-24T08:30:16.346Z,13.80
2017-09-24T08:32:51.072Z,15.50
2017-09-24T08:35:25.590Z,14.95
2017-09-24T08:38:00.678Z,14.38
2017-09-24T08:40:35.127Z,13.50
2017-09-24T08:43:09.502Z,14.05
2017-09-24T08:45:46.031Z,14.93
2017-09-24T08:48:20.619Z,14.40
2017-09-24T08:50:55.936Z,14.45
2017-09-24T08:53:30.351Z,14.57
2017-09-24T08:56:04.800Z,14.27
2017-09-24T08:58:39.239Z,14.75
2017-09-24T09:01:13.605Z,15.50
2017-09-24T09:03:48.150Z,14.85
2017-09-24T09:06:22.671Z,17.80
2017-09-24T09:08:57.207Z,15.82
2017-09-24T09:11:31.829Z,16.85
2017-09-24T09:14:07.418Z,20.30
2017-09-24T09:16:42.309Z,17.37
2017-09-24T09:19:17.087Z,16.60
2017-09-24T09:21:51.653Z,16.67
2017-09-24T09:24:27.218Z,17.35
2017-09-24T09:27:01.796Z,16.45
2017-09-24T09:29:37.065Z,17.40
2017-09-24T09:32:11.451Z,16.25
2017-09-24T09:34:57.710Z,15.75
2017-09-24T09:37:32.263Z,14.63
2017-09-24T09:40:07.470Z,15.60
2017-09-24T09:42:42.174Z,17.55
2017-09-24T09:45:28.449Z,16.00
2017-09-24T09:48:03.673Z,14.98
2017-09-24T09:50:38.246Z,17.58
2017-09-24T09:53:12.807Z,15.00
2017-09-24T09:55:47.408Z,13.52
2017-09-24T09:58:21.803Z,13.43
2017-09-24T10:00:56.109Z,12.73
2017-09-24T10:03:31.276Z,8.80
2017-09-24T10:06:05.634Z,11.32
2017-09-24T10:08:48.044Z,12.05
2017-09-24T10:11:23.187Z,11.60
2017-09-24T10:13:58.057Z,12.27
2017-09-24T10:16:32.427Z,11.02
2017-09-24T10:19:06.812Z,11.95
2017-09-24T10:21:42.021Z,13.13
2017-09-24T10:24:17.556Z,14.20
2017-09-24T10:26:51.911Z,14.23
2017-09-24T10:29:29.148Z,14.77
2017-09-24T10:32:07.235Z,15.30
2017-09-24T10:34:42.719Z,15.27
2017-09-24T10:37:19.708Z,14.70
2017-09-24T10:39:54.223Z,13.60
2017-09-24T10:42:28.657Z,14.23
2017-09-24T10:45:03.284Z,16.25
2017-09-24T10:47:37.845Z,15.55
2017-09-24T10:50:12.358Z,15.98
2017-09-24T10:52:47.043Z,15.95
2017-09-24T10:55:21.439Z,14.55
2017-09-24T10:58:08.555Z,14.40
2017-09-24T11:00:44.078Z,16.35
2017-09-24T11:03:43.255Z,16.70
2017-09-24T11:06:40.208Z,16.00
2017-09-24T11:09:17.001Z,17.35
2017-09-24T11:11:53.164Z,17.75
2017-09-24T11:14:29.622Z,20.50
2017-09-24T11:17:04.146Z,19.45
2017-09-24T11:19:38.482Z,19.08
2017-09-24T11:22:13.116Z,18.95
2017-09-24T11:24:47.672Z,18.60
2017-09-24T11:27:25.859Z,20.85
2017-09-24T11:30:00.368Z,20.33
2017-09-24T11:32:34.863Z,19.75
2017-09-24T11:35:09.383Z,21.45
2017-09-24T11:37:43.791Z,20.12
2017-09-24T11:40:18.201Z,21.92
2017-09-24T11:42:52.797Z,19.95
2017-09-24T11:45:28.009Z,21.17
2017-09-24T11:48:02.564Z,19.77
2017-09-24T11:50:36.925Z,20.98
2017-09-24T11:53:11.644Z,20.45
2017-09-24T11:55:46.209Z,23.33
2017-09-24T11:58:20.554Z,21.45
2017-09-24T12:00:55.778Z,23.40
2017-09-24T12:03:30.316Z,22.25
2017-09-24T12:06:05.496Z,24.60
2017-09-24T12:08:40.056Z,23.50
2017-09-24T12:11:14.548Z,23.10
2017-09-24T12:13:48.898Z,23.75
2017-09-24T12:16:24.184Z,23.38
2017-09-24T12:18:58.772Z,23.35
2017-09-24T12:21:34.023Z,25.45
2017-09-24T12:24:09.965Z,24.70
2017-09-24T12:26:44.373Z,23.25
2017-09-24T12:29:19.001Z,25.37
2017-09-24T12:31:53.561Z,22.23
2017-09-24T12:34:28.385Z,24.40
2017-09-24T12:37:03.184Z,23.17
2017-09-24T12:39:38.991Z,21.50
2017-09-24T12:42:13.347Z,21.42
2017-09-24T12:44:47.816Z,22.25
2017-09-24T12:47:22.359Z,21.65
2017-09-24T12:49:57.780Z,24.27
2017-09-24T12:52:32.487Z,22.45
2017-09-24T12:55:08.015Z,21.17
2017-09-24T12:57:43.161Z,23.55
2017-09-24T13:00:17.676Z,22.48
2017-09-24T13:02:52.288Z,22.80
2017-09-24T13:05:26.932Z,23.00
2017-09-24T13:08:01.545Z,21.70
2017-09-24T13:10:36.291Z,23.77
2017-09-24T13:13:11.520Z,21.98
2017-09-24T13:15:46.069Z,22.45
2017-09-24T13:18:20.730Z,21.55
2017-09-24T13:21:05.269Z,21.12
2017-09-24T13:23:39.700Z,21.60
2017-09-24T13:26:14.213Z,20.42
2017-09-24T13:28:49.450Z,19.62
2017-09-24T13:31:23.921Z,19.52
2017-09-24T13:33:58.572Z,19.07
2017-09-24T13:36:32.933Z,19.77
2017-09-24T13:39:07.410Z,20.95
2017-09-24T13:41:41.950Z,21.87
2017-09-24T13:44:16.543Z,20.98
2017-09-24T13:46:51.920Z,25.98
2017-09-24T13:49:26.530Z,21.52
2017-09-24T13:52:00.947Z,19.83
2017-09-24T13:54:35.588Z,18.73
2017-09-24T13:57:14.111Z,18.85
2017-09-24T13:59:48.704Z,19.35
2017-09-24T14:02:23.403Z,21.40
2017-09-24T14:04:57.931Z,21.12
2017-09-24T14:07:32.479Z,19.30
2017-09-24T14:10:06.944Z,19.43
2017-09-24T14:12:41.502Z,18.97
2017-09-24T14:15:15.932Z,19.40
2017-09-24T14:17:50.456Z,19.70
2017-09-24T14:20:25.184Z,21.25
2017-09-24T14:23:00.192Z,21.70
2017-09-24T14:25:34.899Z,20.15
2017-09-24T14:28:09.607Z,20.53
2017-09-24T14:30:44.058Z,20.93
2017-09-24T14:33:18.516Z,21.63
2017-09-24T14:35:53.125Z,22.53
2017-09-24T14:38:27.618Z,19.40
2017-09-24T14:41:04.808Z,19.23
2017-09-24T14:43:39.372Z,18.30
2017-09-24T14:46:13.927Z,20.27
2017-09-24T14:48:48.404Z,21.33
2017-09-24T14:51:24.608Z,21.07
2017-09-24T14:53:59.188Z,21.67
2017-09-24T14:56:52.658Z,21.93
2017-09-24T14:59:29.148Z,22.53
2017-09-24T15:02:04.614Z,21.40
2017-09-24T15:04:39.872Z,22.20
2017-09-24T15:07:14.492Z,22.42
2017-09-24T15:09:48.977Z,22.62
2017-09-24T15:12:23.630Z,20.50
2017-09-24T15:14:58.177Z,23.20
2017-09-24T15:17:32.500Z,22.67
2017-09-24T15:20:07.706Z,22.83
2017-09-24T15:22:42.430Z,23.42
2017-09-24T15:25:17.894Z,24.80
2017-09-24T15:27:52.403Z,24.83
2017-09-24T15:30:26.893Z,25.15
2017-09-24T15:33:01.228Z,24.20
2017-09-24T15:35:36.568Z,27.08
2017-09-24T15:38:11.187Z,25.25
2017-09-24T15:40:45.492Z,26.15
2017-09-24T15:43:20.747Z,28.08
2017-09-24T15:45:55.504Z,26.92
2017-09-24T15:48:30.043Z,27.55
2017-09-24T15:51:04.575Z,29.50
2017-09-24T15:53:38.988Z,30.70
2017-09-24T15:56:13.468Z,28.60
2017-09-24T15:58:47.850Z,28.05
2017-09-24T16:01:23.122Z,30.45
2017-09-24T16:03:57.443Z,27.17
2017-09-24T16:06:31.927Z,28.65
2017-09-24T16:09:06.351Z,26.65
2017-09-24T16:11:40.885Z,28.30
2017-09-24T16:14:16.127Z,30.37
2017-09-24T16:16:50.512Z,30.23
2017-09-24T16:19:25.200Z,29.52
2017-09-24T16:22:00.036Z,29.02
2017-09-24T16:24:34.428Z,28.50
2017-09-24T16:27:08.756Z,29.60
2017-09-24T16:29:43.153Z,30.15
2017-09-24T16:32:17.740Z,28.25
2017-09-24T16:34:53.008Z,28.85
2017-09-24T16:37:27.452Z,26.23
2017-09-24T16:40:02.397Z,27.27
2017-09-24T16:42:38.719Z,36.15
2017-09-24T16:45:14.400Z,28.95
2017-09-24T16:47:49.186Z,30.83
2017-09-24T16:50:24.646Z,27.02
2017-09-24T16:52:59.295Z,27.50
2017-09-24T16:55:33.904Z,30.60
2017-09-24T16:58:08.303Z,27.95
2017-09-24T17:00:42.990Z,29.58
2017-09-24T17:03:17.481Z,27.17
2017-09-24T17:05:51.901Z,26.98
2017-09-24T17:08:26.344Z,30.12
2017-09-24T17:11:00.878Z,30.55
2017-09-24T17:13:36.195Z,28.83
2017-09-24T17:16:10.588Z,28.05
2017-09-24T17:18:45.332Z,28.38
2017-09-24T17:21:19.714Z,28.73
2017-09-24T17:23:54.378Z,26.37
2017-09-24T17:26:32.783Z,26.98
2017-09-24T17:29:11.226Z,25.98
2017-09-24T17:31:56.533Z,25.25
2017-09-24T17:34:33.457Z,27.25
2017-09-24T17:37:08.241Z,25.48
2017-09-24T17:39:43.711Z,25.73
2017-09-24T17:42:18.983Z,26.15
2017-09-24T17:44:53.768Z,25.12
2017-09-24T17:47:29.509Z,24.92
2017-09-24T17:50:04.077Z,25.58
2017-09-24T17:52:40.013Z,25.25
2017-09-24T17:55:14.576Z,24.50
2017-09-24T17:57:49.976Z,25.08
2017-09-24T18:00:26.372Z,25.45
2017-09-24T18:03:01.298Z,26.30
2017-09-24T18:05:38.446Z,29.08
2017-09-24T18:08:13.919Z,25.67
2017-09-24T18:10:48.400Z,29.45
2017-09-24T18:13:22.761Z,28.40
2017-09-24T18:15:57.988Z,27.05
2017-09-24T18:18:34.696Z,28.12
2017-09-24T18:21:09.388Z,28.50
2017-09-24T18:23:45.450Z,28.60
2017-09-24T18:26:20.223Z,29.70
2017-09-24T18:28:55.620Z,28.20
2017-09-24T18:31:30.324Z,27.55
2017-09-24T18:34:05.741Z,26.90
2017-09-24T18:36:43.028Z,31.02
2017-09-24T18:39:21.690Z,29.27
2017-09-24T18:41:57.436Z,28.20
2017-09-24T18:44:32.778Z,30.35
2017-09-24T18:47:09.110Z,28.10
2017-09-24T18:49:44.344Z,28.12
2017-09-24T18:52:19.546Z,27.98
2017-09-24T18:54:55.802Z,28.58
2017-09-24T18:57:31.790Z,29.80
2017-09-24T19:00:07.721Z,28.77
2017-09-24T19:02:42.526Z,27.83
2017-09-24T19:05:19.638Z,28.35
2017-09-24T19:07:55.455Z,28.33
2017-09-24T19:10:31.221Z,27.85
2017-09-24T19:13:05.948Z,27.00
2017-09-24T19:15:40.807Z,29.33
2017-09-24T19:18:17.532Z,27.10
2017-09-24T19:20:52.391Z,28.50
2017-09-24T19:23:28.168Z,28.60
2017-09-24T19:26:03.081Z,30.25
2017-09-24T19:28:39.233Z,28.20
2017-09-24T19:31:14.488Z,28.67
2017-09-24T19:33:52.083Z,29.60
2017-09-24T19:36:28.167Z,30.60
2017-09-24T19:39:03.369Z,26.62
2017-09-24T19:41:45.047Z,27.15
2017-09-24T19:44:20.584Z,28.15
2017-09-24T19:46:56.295Z,26.95
2017-09-24T19:49:31.736Z,27.90
2017-09-24T19:52:08.139Z,28.87
2017-09-24T19:54:45.868Z,25.35
2017-09-24T19:57:23.279Z,26.77
2017-09-24T20:00:01.830Z,29.37
2017-09-24T20:02:37.552Z,27.75
2017-09-24T20:05:14.539Z,26.50
2017-09-24T20:07:51.015Z,25.70
2017-09-24T20:10:25.833Z,26.58
2017-09-24T20:13:01.261Z,25.58
2017-09-24T20:15:35.834Z,26.55
2017-09-24T20:18:11.284Z,28.23
2017-09-24T20:20:47.311Z,26.40
2017-09-24T20:23:21.779Z,27.87
2017-09-24T20:25:56.688Z,26.30
2017-09-24T20:28:31.194Z,24.90
2017-09-24T20:31:06.905Z,28.50
2017-09-24T20:33:41.803Z,26.77
2017-09-24T20:36:16.666Z,26.55
2017-09-24T20:38:51.605Z,27.02
2017-09-24T20:41:26.427Z,26.15
2017-09-24T20:44:00.942Z,26.87
2017-09-24T20:46:35.559Z,26.55
2017-09-24T20:49:10.043Z,24.95
2017-09-24T20:51:44.481Z,24.65
2017-09-24T20:54:19.872Z,25.48
2017-09-24T20:56:58.345Z,25.67
2017-09-24T20:59:32.872Z,25.67
2017-09-24T21:02:07.237Z,27.20
2017-09-24T21:04:41.696Z,26.27
2017-09-24T21:07:16.868Z,25.08
2017-09-24T21:09:51.751Z,27.45
2017-09-24T21:12:26.299Z,27.23
2017-09-24T21:15:01.147Z,26.20
2017-09-24T21:17:35.727Z,26.00
2017-09-24T21:20:10.652Z,25.83
2017-09-24T21:22:45.278Z,25.23
2017-09-24T21:25:19.640Z,25.67
2017-09-24T21:27:54.255Z,27.50
2017-09-24T21:30:28.854Z,23.02
2017-09-24T21:33:03.569Z,26.33
2017-09-24T21:35:38.196Z,25.77
2017-09-24T21:38:12.724Z,27.00
2017-09-24T21:40:47.330Z,27.62
2017-09-24T21:43:21.925Z,26.62
2017-09-24T21:45:56.271Z,24.20
2017-09-24T21:48:30.795Z,24.17
2017-09-24T21:51:05.208Z,24.48
2017-09-24T21:53:39.552Z,26.00
2017-09-24T21:56:13.878Z,24.42
2017-09-24T21:58:48.277Z,26.27
2017-09-24T22:01:22.684Z,24.87
2017-09-24T22:03:57.259Z,23.33
2017-09-24T22:06:31.795Z,23.60
2017-09-24T22:09:06.124Z,23.30
2017-09-24T22:11:41.364Z,23.00
2017-09-24T22:14:15.835Z,24.67
2017-09-24T22:16:50.207Z,27.35
2017-09-24T22:19:24.773Z,25.73
2017-09-24T22:21:59.262Z,26.25
2017-09-24T22:24:33.889Z,27.73
2017-09-24T22:27:08.273Z,25.73
2017-09-24T22:29:42.607Z,27.27
2017-09-24T22:32:17.115Z,27.30
2017-09-24T22:34:51.664Z,28.55
2017-09-24T22:37:26.056Z,26.20
2017-09-24T22:40:00.811Z,29.25
2017-09-24T22:42:35.343Z,27.62
2017-09-24T22:45:09.877Z,25.12
2017-09-24T22:47:44.321Z,24.37
2017-09-24T22:50:18.814Z,23.62
2017-09-24T22:52:53.319Z,24.52
2017-09-24T22:55:27.719Z,24.77
2017-09-24T22:58:02.095Z,24.92
2017-09-24T23:00:36.430Z,23.27
2017-09-24T23:03:10.915Z,24.52
2017-09-24T23:05:45.408Z,25.70
2017-09-24T23:08:20.028Z,25.55
2017-09-24T23:10:54.392Z,24.15
2017-09-24T23:13:28.973Z,26.62
2017-09-24T23:16:03.448Z,25.10
2017-09-24T23:18:37.791Z,23.67
2017-09-24T23:21:12.324Z,22.00
2017-09-24T23:23:46.862Z,22.85
2017-09-24T23:26:21.264Z,21.50
2017-09-24T23:28:55.612Z,22.33
2017-09-24T23:31:29.961Z,22.08
2017-09-24T23:34:04.320Z,20.33
2017-09-24T23:36:38.848Z,19.35
2017-09-24T23:39:13.247Z,20.23
2017-09-24T23:41:47.633Z,19.55
2017-09-24T23:44:21.964Z,19.23
2017-09-24T23:46:56.275Z,19.95
2017-09-24T23:49:30.874Z,20.10
2017-09-24T23:52:05.224Z,19.10
2017-09-24T23:54:39.632Z,19.08
2017-09-24T23:57:14.058Z,20.10
2017-09-24T23:59:48.399Z,19.52
